Time;durP1;ratioP1;P1;durP2;ratioP2;P2;SDS_P1;SDS_P2;PMS_P1;PMS_P2;Temp;Humidity;BMP_temperature;BMP_pressure;BME280_temperature;BME280_humidity;BME280_pressure;Samples;Min_cycle;Max_cycle;Signal;HPM_P1;HPM_P2
2021/01/13 00:02:21;;;;;;;10.45;2.13;;;3.20;90.50;;;;;;4991828;28;20046;-52
2021/01/13 00:04:47;;;;;;;13.65;1.85;;;3.10;90.80;;;;;;4992296;28;20077;-53
2021/01/13 00:07:14;;;;;;;11.13;1.40;;;3.20;90.30;;;;;;4991718;28;20500;-55
2021/01/13 00:09:41;;;;;;;10.77;2.28;;;3.10;90.40;;;;;;4991923;28;20382;-51
2021/01/13 00:12:07;;;;;;;11.82;1.40;;;3.10;91.00;;;;;;4991685;28;20046;-50
2021/01/13 00:14:32;;;;;;;12.27;1.92;;;3.00;91.30;;;;;;4991911;28;20049;-52
2021/01/13 00:16:58;;;;;;;16.83;1.85;;;2.80;91.50;;;;;;4991971;28;20046;-53
2021/01/13 00:19:24;;;;;;;15.88;1.73;;;2.90;91.30;;;;;;4995017;28;20050;-53
2021/01/13 00:21:51;;;;;;;7.22;1.98;;;2.90;90.90;;;;;;4995530;28;20056;-53
2021/01/13 00:24:18;;;;;;;12.68;2.00;;;2.90;90.80;;;;;;4995515;28;20069;-51
2021/01/13 00:26:44;;;;;;;6.55;1.30;;;3.00;90.20;;;;;;4995111;28;20039;-53
2021/01/13 00:29:14;;;;;;;6.07;1.20;;;3.00;90.00;;;;;;4995330;28;20051;-51
2021/01/13 00:31:40;;;;;;;6.10;1.38;;;3.00;89.20;;;;;;4995167;28;20050;-53
2021/01/13 00:34:09;;;;;;;8.95;1.60;;;3.00;89.40;;;;;;4995249;28;20170;-55
2021/01/13 00:36:35;;;;;;;;;;;3.00;89.10;;;;;;4995532;28;20093;-52
2021/01/13 00:39:01;;;;;;;11.15;1.83;;;3.00;89.40;;;;;;4994981;28;19921;-54
2021/01/13 00:41:27;;;;;;;11.88;1.17;;;2.90;88.80;;;;;;4995285;28;20050;-54
2021/01/13 00:43:53;;;;;;;11.15;2.05;;;3.00;88.60;;;;;;4995094;28;20476;-54
2021/01/13 00:46:20;;;;;;;13.05;1.40;;;3.10;88.40;;;;;;4995061;28;20153;-55
2021/01/13 00:48:46;;;;;;;10.13;1.25;;;2.90;89.30;;;;;;4994941;28;20103;-52
2021/01/13 00:51:12;;;;;;;8.05;1.27;;;2.90;89.20;;;;;;4994736;28;20105;-53
2021/01/13 00:53:38;;;;;;;3.95;1.02;;;3.00;88.80;;;;;;4994832;28;20096;-55
2021/01/13 00:56:04;;;;;;;7.68;1.20;;;2.90;89.20;;;;;;4994861;28;20046;-55
2021/01/13 00:58:30;;;;;;;5.20;1.05;;;2.90;89.40;;;;;;4994557;28;20493;-54
2021/01/13 01:00:57;;;;;;;6.13;1.33;;;2.90;89.60;;;;;;4994730;28;20081;-53
2021/01/13 01:03:23;;;;;;;8.98;1.23;;;2.90;90.10;;;;;;4994884;28;20042;-54
2021/01/13 01:05:49;;;;;;;7.55;1.48;;;2.90;90.10;;;;;;4994376;28;20134;-53
2021/01/13 01:08:15;;;;;;;7.90;1.10;;;3.00;90.10;;;;;;4994484;28;20038;-55
2021/01/13 01:10:42;;;;;;;12.07;1.17;;;3.10;88.90;;;;;;4994685;28;20129;-53
2021/01/13 01:13:08;;;;;;;9.80;1.30;;;3.20;89.80;;;;;;4994603;28;20100;-53
2021/01/13 01:15:34;;;;;;;10.85;1.13;;;3.10;89.70;;;;;;4992711;28;20480;-54
2021/01/13 01:18:00;;;;;;;4.68;0.90;;;3.20;90.20;;;;;;4994405;28;20050;-52
2021/01/13 01:20:27;;;;;;;8.52;1.45;;;3.20;90.10;;;;;;4993953;28;20062;-52
2021/01/13 01:22:53;;;;;;;9.77;1.70;;;3.30;90.50;;;;;;4994229;28;20485;-54
2021/01/13 01:25:20;;;;;;;10.68;1.63;;;3.30;90.90;;;;;;4994407;28;20101;-54
2021/01/13 01:27:48;;;;;;;8.10;1.25;;;3.40;91.40;;;;;;4994443;28;20097;-55
2021/01/13 01:30:14;;;;;;;12.13;1.85;;;3.50;91.50;;;;;;4992496;28;20038;-53
2021/01/13 01:32:39;;;;;;;10.77;1.80;;;3.50;92.20;;;;;;4993166;28;20065;-54
2021/01/13 01:35:06;;;;;;;13.55;1.90;;;3.40;92.80;;;;;;4993233;28;20038;-54
2021/01/13 01:37:36;;;;;;;12.27;2.15;;;3.40;92.70;;;;;;4993014;28;20480;-51
2021/01/13 01:40:06;;;;;;;14.25;1.67;;;3.40;92.80;;;;;;4993857;28;20076;-52
2021/01/13 01:42:33;;;;;;;16.55;1.80;;;3.50;92.50;;;;;;4994075;28;20121;-54
2021/01/13 01:44:59;;;;;;;9.38;1.80;;;3.40;92.90;;;;;;4993918;28;20050;-54
2021/01/13 01:47:37;;;;;;;4.53;0.82;;;3.30;93.60;;;;;;4993631;28;20050;-55
2021/01/13 01:50:03;;;;;;;8.25;1.08;;;3.30;93.10;;;;;;4993801;28;20045;-49
2021/01/13 01:52:29;;;;;;;8.50;1.77;;;3.30;93.10;;;;;;4993730;28;20080;-53
2021/01/13 01:55:01;;;;;;;6.85;1.20;;;3.30;93.30;;;;;;4993748;28;20062;-54
2021/01/13 01:57:34;;;;;;;10.70;1.70;;;3.40;93.10;;;;;;4993556;28;20057;-54
2021/01/13 02:00:01;;;;;;;10.40;1.45;;;3.30;93.60;;;;;;4993819;28;20046;-51
2021/01/13 02:02:39;;;;;;;10.63;1.90;;;3.20;93.80;;;;;;4993405;28;20046;-55
2021/01/13 02:05:10;;;;;;;8.15;1.50;;;3.30;93.30;;;;;;4993605;28;20519;-51
2021/01/13 02:07:36;;;;;;;6.78;1.35;;;3.30;93.50;;;;;;4993690;28;20046;-54
2021/01/13 02:10:04;;;;;;;7.15;1.33;;;3.30;93.00;;;;;;4993337;28;20400;-54
2021/01/13 02:12:33;;;;;;;9.80;1.45;;;3.20;93.20;;;;;;4993320;28;20046;-52
2021/01/13 02:15:01;;;;;;;13.70;1.83;;;3.20;93.00;;;;;;4993520;28;20065;-50
2021/01/13 02:17:32;;;;;;;14.00;2.08;;;3.10;93.30;;;;;;4993058;28;20596;-54
2021/01/13 02:19:58;;;;;;;8.20;1.13;;;3.10;93.30;;;;;;4992030;28;20432;-54
2021/01/13 02:22:27;;;;;;;5.47;1.10;;;3.00;93.20;;;;;;4993415;28;20076;-52
2021/01/13 02:25:11;;;;;;;10.65;1.88;;;2.90;93.40;;;;;;4993104;28;20052;-53
2021/01/13 02:28:03;;;;;;;12.25;1.30;;;3.00;93.10;;;;;;4993252;28;20161;-53
2021/01/13 02:30:40;;;;;;;8.70;1.40;;;3.10;92.80;;;;;;4993040;28;20050;-54
2021/01/13 02:33:21;;;;;;;7.80;1.13;;;3.10;93.20;;;;;;4993029;28;20084;-54
2021/01/13 02:36:07;;;;;;;4.50;1.00;;;3.00;93.30;;;;;;4992814;28;20515;-50
2021/01/13 02:38:36;;;;;;;3.33;0.82;;;2.90;93.40;;;;;;4992872;28;20042;-52
2021/01/13 02:41:07;;;;;;;5.97;1.10;;;3.00;93.40;;;;;;4992901;28;20046;-55
2021/01/13 02:43:32;;;;;;;5.43;0.88;;;3.00;93.20;;;;;;4992533;28;20076;-55
2021/01/13 02:46:02;;;;;;;8.05;0.90;;;3.10;93.10;;;;;;4993029;28;20074;-54
2021/01/13 02:48:33;;;;;;;5.93;1.00;;;3.20;92.90;;;;;;4992100;28;20491;-54
2021/01/13 02:51:00;;;;;;;5.13;0.77;;;3.20;92.60;;;;;;4993044;28;20057;-53
2021/01/13 02:53:29;;;;;;;7.18;0.85;;;3.30;92.00;;;;;;4992696;28;20046;-54
2021/01/13 02:56:27;;;;;;;9.90;1.20;;;3.40;92.30;;;;;;4993067;28;20101;-53
2021/01/13 02:59:04;;;;;;;10.77;1.42;;;3.50;92.10;;;;;;4970770;28;20525;-52
2021/01/13 03:01:30;;;;;;;10.80;1.48;;;3.40;92.80;;;;;;4971083;28;20061;-54
2021/01/13 03:03:57;;;;;;;11.35;1.83;;;3.40;92.90;;;;;;4970937;28;20043;-54
2021/01/13 03:06:29;;;;;;;9.85;1.27;;;3.30;93.40;;;;;;4970903;28;20046;-55
2021/01/13 03:09:10;;;;;;;10.63;1.70;;;3.30;93.50;;;;;;4970922;28;21084;-54
2021/01/13 03:11:38;;;;;;;11.57;2.55;;;3.20;93.80;;;;;;4970830;28;20082;-54
2021/01/13 03:14:12;;;;;;;14.82;2.15;;;3.30;93.60;;;;;;4970773;28;20039;-53
2021/01/13 03:16:43;;;;;;;12.38;2.00;;;3.30;93.60;;;;;;4971023;28;20153;-53
2021/01/13 03:19:17;;;;;;;11.48;2.72;;;3.20;93.90;;;;;;4970728;28;20458;-55
2021/01/13 03:22:09;;;;;;;15.45;2.17;;;3.30;93.80;;;;;;4971028;28;20105;-55
2021/01/13 03:24:43;;;;;;;11.50;1.77;;;3.30;93.50;;;;;;4970538;28;20090;-54
2021/01/13 03:27:10;;;;;;;11.30;2.10;;;3.30;93.90;;;;;;4970629;28;20057;-52
2021/01/13 03:29:41;;;;;;;11.38;1.85;;;3.40;93.30;;;;;;4970507;28;20058;-54
2021/01/13 03:32:10;;;;;;;12.40;2.03;;;3.40;93.30;;;;;;4970776;28;20049;-53
2021/01/13 03:34:45;;;;;;;13.13;1.77;;;3.40;93.10;;;;;;4970677;28;20047;-53
2021/01/13 03:37:10;;;;;;;12.35;1.73;;;3.50;92.90;;;;;;4992559;28;20053;-55
2021/01/13 03:39:38;;;;;;;14.23;3.35;;;3.50;92.60;;;;;;4992308;28;20407;-54
2021/01/13 03:42:13;;;;;;;8.98;2.08;;;3.50;92.40;;;;;;4992468;28;20050;-55
2021/01/13 03:44:41;;;;;;;6.00;1.20;;;3.50;92.80;;;;;;4992332;28;20054;-55
2021/01/13 03:47:17;;;;;;;10.32;1.80;;;3.50;92.80;;;;;;4992188;28;20042;-53
2021/01/13 03:49:54;;;;;;;9.82;1.42;;;3.50;93.00;;;;;;4992522;28;20197;-53
2021/01/13 03:52:25;;;;;;;7.28;1.10;;;3.50;92.90;;;;;;4992555;28;20559;-55
2021/01/13 03:54:53;;;;;;;6.43;1.30;;;3.60;92.30;;;;;;4995800;28;20393;-53
2021/01/13 03:57:33;;;;;;;7.05;0.80;;;3.60;92.50;;;;;;4995909;28;20092;-54
2021/01/13 04:00:07;;;;;;;5.40;0.73;;;3.50;92.30;;;;;;4996107;28;20046;-52
2021/01/13 04:03:13;;;;;;;13.07;1.55;;;3.50;92.00;;;;;;4995940;28;20077;-54
2021/01/13 04:05:51;;;;;;;4.60;1.13;;;3.50;92.20;;;;;;4995821;28;20049;-55
2021/01/13 04:08:18;;;;;;;12.75;1.10;;;3.50;91.90;;;;;;4995880;28;20096;-54
2021/01/13 04:10:44;;;;;;;7.65;1.40;;;3.60;92.60;;;;;;4995697;28;20121;-54
2021/01/13 04:13:39;;;;;;;6.85;1.08;;;3.60;92.50;;;;;;4995654;28;20125;-54
2021/01/13 04:16:07;;;;;;;10.40;1.48;;;3.50;92.90;;;;;;4995617;28;20113;-55
2021/01/13 04:18:33;;;;;;;3.70;0.80;;;3.60;92.50;;;;;;4995812;28;20105;-53
2021/01/13 04:20:59;;;;;;;11.02;1.20;;;3.60;92.40;;;;;;4995234;28;20081;-54
2021/01/13 04:23:25;;;;;;;9.20;1.52;;;3.60;92.70;;;;;;4995698;28;20057;-55
2021/01/13 04:25:52;;;;;;;7.78;1.58;;;3.60;92.40;;;;;;4995609;28;20054;-54
2021/01/13 04:28:18;;;;;;;9.93;1.33;;;3.60;92.20;;;;;;4995059;28;20069;-54
2021/01/13 04:30:44;;;;;;;10.90;1.30;;;3.60;92.20;;;;;;4995459;28;20073;-54
2021/01/13 04:33:10;;;;;;;8.93;1.30;;;3.50;92.50;;;;;;4995493;28;20053;-53
2021/01/13 04:35:36;;;;;;;13.18;1.83;;;3.50;92.60;;;;;;4993831;28;20505;-54
2021/01/13 04:38:03;;;;;;;7.15;1.25;;;3.50;92.50;;;;;;4995312;28;20129;-54
2021/01/13 04:40:31;;;;;;;7.53;1.45;;;3.50;92.60;;;;;;4995177;28;20057;-54
2021/01/13 04:43:06;;;;;;;11.70;1.92;;;3.40;92.50;;;;;;4995332;28;20076;-55
2021/01/13 04:45:37;;;;;;;13.85;1.77;;;3.40;92.70;;;;;;4995516;28;20054;-53
2021/01/13 04:48:08;;;;;;;7.00;1.20;;;3.40;93.10;;;;;;4995225;28;20042;-52
2021/01/13 04:50:46;;;;;;;9.27;1.20;;;3.40;92.60;;;;;;4994652;28;20046;-51
2021/01/13 04:53:20;;;;;;;16.13;1.80;;;3.40;93.10;;;;;;4994901;28;20404;-51
2021/01/13 04:55:54;;;;;;;5.50;1.40;;;3.30;93.50;;;;;;4995292;28;20121;-53
2021/01/13 04:58:56;;;;;;;9.82;1.00;;;3.40;92.70;;;;;;4995087;28;20046;-53
2021/01/13 05:01:43;;;;;;;8.00;1.67;;;3.30;92.50;;;;;;4993643;28;20061;-54
2021/01/13 05:04:23;;;;;;;11.15;1.50;;;3.20;92.40;;;;;;4993761;28;20042;-53
2021/01/13 05:06:59;;;;;;;;;;;3.30;93.20;;;;;;4995208;28;20053;-53
2021/01/13 05:09:41;;;;;;;9.55;2.08;;;3.30;93.50;;;;;;4994654;28;19968;-55
2021/01/13 05:12:09;;;;;;;9.43;1.63;;;3.40;93.20;;;;;;4994700;28;20042;-52
2021/01/13 05:14:45;;;;;;;11.05;2.00;;;3.40;93.50;;;;;;4995087;28;20054;-54
2021/01/13 05:17:33;;;;;;;11.63;2.45;;;3.40;93.90;;;;;;4994382;28;20073;-55
2021/01/13 05:20:20;;;;;;;13.65;2.47;;;3.40;94.30;;;;;;4994447;28;20046;-55
2021/01/13 05:22:50;;;;;;;11.10;1.70;;;3.40;93.90;;;;;;4994337;28;20046;-52
2021/01/13 05:25:54;;;;;;;12.15;1.85;;;3.40;94.00;;;;;;4994369;28;20035;-53
2021/01/13 05:28:27;;;;;;;11.95;1.85;;;3.40;94.30;;;;;;4972576;28;20528;-53
2021/01/13 05:30:56;;;;;;;14.10;1.90;;;3.40;94.30;;;;;;4972264;28;20049;-51
2021/01/13 05:33:30;;;;;;;15.57;2.15;;;3.40;94.80;;;;;;4972316;28;20041;-53
2021/01/13 05:36:03;;;;;;;16.92;2.05;;;3.50;94.50;;;;;;4972684;28;20133;-54
2021/01/13 05:38:38;;;;;;;18.15;2.20;;;3.50;95.00;;;;;;4972349;28;20047;-52
2021/01/13 05:41:14;;;;;;;11.35;1.60;;;3.50;95.10;;;;;;4972460;28;20540;-54
2021/01/13 05:43:46;;;;;;;14.52;1.90;;;3.50;95.10;;;;;;4972130;28;20050;-54
2021/01/13 05:46:14;;;;;;;8.25;1.40;;;3.40;95.30;;;;;;4972404;28;20051;-53
2021/01/13 05:48:52;;;;;;;10.00;1.60;;;3.40;95.10;;;;;;4971934;28;20129;-53
2021/01/13 05:51:28;;;;;;;11.05;2.20;;;3.40;95.00;;;;;;4972482;28;20071;-53
2021/01/13 05:53:54;;;;;;;8.10;1.45;;;3.40;95.30;;;;;;4972059;28;20066;-53
2021/01/13 05:56:21;;;;;;;10.85;1.52;;;3.40;95.10;;;;;;4972250;28;20061;-55
2021/01/13 05:58:47;;;;;;;8.55;1.42;;;3.40;95.30;;;;;;4971927;28;20039;-54
2021/01/13 06:01:33;;;;;;;8.05;1.33;;;3.40;94.80;;;;;;4972060;28;20074;-55
2021/01/13 06:03:59;;;;;;;8.90;1.38;;;3.40;94.50;;;;;;4983193;28;20495;-53
2021/01/13 06:06:35;;;;;;;12.38;1.27;;;3.30;94.60;;;;;;4993491;28;20125;-54
2021/01/13 06:09:03;;;;;;;13.70;1.95;;;3.20;94.40;;;;;;4993505;28;20073;-53
2021/01/13 06:11:33;;;;;;;14.00;2.03;;;3.20;94.30;;;;;;4993634;28;20088;-54
2021/01/13 06:14:03;;;;;;;16.33;1.98;;;3.20;94.40;;;;;;4993438;28;20125;-53
2021/01/13 06:16:29;;;;;;;11.13;1.95;;;3.10;94.50;;;;;;4993330;28;20078;-54
2021/01/13 06:18:58;;;;;;;12.25;2.42;;;3.10;94.60;;;;;;4993036;28;20508;-54
2021/01/13 06:21:24;;;;;;;20.13;3.28;;;3.20;94.50;;;;;;4993367;28;20065;-54
2021/01/13 06:23:51;;;;;;;18.25;3.40;;;3.10;94.40;;;;;;4993184;28;20050;-51
2021/01/13 06:26:18;;;;;;;12.35;2.65;;;3.10;94.70;;;;;;4992810;28;20057;-52
2021/01/13 06:29:06;;;;;;;19.02;2.78;;;3.10;94.90;;;;;;4993431;28;20050;-51
2021/01/13 06:31:42;;;;;;;13.60;2.72;;;3.10;94.80;;;;;;4993227;28;20038;-53
2021/01/13 06:34:25;;;;;;;13.93;2.05;;;3.20;94.50;;;;;;4993051;28;20499;-54
2021/01/13 06:37:05;;;;;;;14.60;1.80;;;3.30;94.60;;;;;;4992815;28;20499;-53
2021/01/13 06:39:33;;;;;;;17.08;2.40;;;3.30;94.30;;;;;;4992954;28;20055;-53
2021/01/13 06:41:59;;;;;;;9.00;1.35;;;3.30;94.30;;;;;;4993074;28;20042;-51
2021/01/13 06:44:25;;;;;;;8.65;1.30;;;3.30;94.40;;;;;;4992779;28;20450;-54
2021/01/13 06:46:53;;;;;;;5.88;1.73;;;3.30;94.20;;;;;;4992693;28;20129;-54
2021/01/13 06:49:21;;;;;;;10.75;1.65;;;3.30;94.10;;;;;;4992881;28;20550;-53
2021/01/13 06:51:49;;;;;;;14.13;1.80;;;3.30;94.00;;;;;;4992934;28;20046;-53
2021/01/13 06:54:19;;;;;;;14.27;1.50;;;3.30;93.80;;;;;;4992667;28;20038;-54
2021/01/13 06:56:56;;;;;;;10.60;1.50;;;3.30;93.90;;;;;;4992957;28;20077;-54
2021/01/13 06:59:24;;;;;;;8.57;1.63;;;3.30;93.80;;;;;;4992856;28;20074;-53
2021/01/13 07:01:50;;;;;;;12.63;2.13;;;3.20;94.00;;;;;;4992493;28;20485;-54
2021/01/13 07:04:16;;;;;;;13.25;1.70;;;3.20;94.10;;;;;;4992707;28;20074;-52
2021/01/13 07:07:02;;;;;;;15.32;1.80;;;3.30;94.00;;;;;;4992559;28;20081;-55
2021/01/13 07:09:36;;;;;;;13.13;1.77;;;3.30;93.70;;;;;;4992839;28;20068;-54
2021/01/13 07:12:32;;;;;;;10.40;1.42;;;3.40;93.30;;;;;;4992315;28;20388;-54
2021/01/13 07:14:58;;;;;;;12.77;1.60;;;3.30;93.30;;;;;;4991528;28;20066;-53
2021/01/13 07:17:26;;;;;;;10.57;1.75;;;3.30;92.80;;;;;;4992755;28;20095;-51
2021/01/13 07:19:54;;;;;;;11.57;1.75;;;3.30;93.10;;;;;;4992629;28;20065;-53
2021/01/13 07:22:22;;;;;;;17.25;1.42;;;3.30;92.80;;;;;;4992841;28;20057;-54
2021/01/13 07:24:48;;;;;;;7.22;1.55;;;3.20;92.80;;;;;;4992048;28;20485;-53
2021/01/13 07:27:15;;;;;;;8.98;1.20;;;3.20;92.50;;;;;;4992625;28;20405;-55
2021/01/13 07:29:41;;;;;;;9.57;1.30;;;3.30;92.30;;;;;;4996359;28;20109;-54
2021/01/13 07:32:10;;;;;;;14.30;1.90;;;3.30;92.50;;;;;;4996720;28;20039;-53
2021/01/13 07:34:37;;;;;;;18.10;2.03;;;3.30;92.70;;;;;;4995927;28;20042;-52
2021/01/13 07:37:08;;;;;;;11.88;1.50;;;3.30;92.80;;;;;;4996282;28;20053;-54
2021/01/13 07:40:04;;;;;;;22.05;2.65;;;3.40;93.20;;;;;;4995939;28;20042;-54
2021/01/13 07:42:42;;;;;;;13.10;2.20;;;3.30;93.30;;;;;;4985867;28;20050;-54
2021/01/13 07:45:13;;;;;;;15.43;1.98;;;3.20;93.60;;;;;;4996025;28;20034;-54
2021/01/13 07:48:05;;;;;;;11.13;1.75;;;3.10;94.00;;;;;;4996139;28;20043;-53
2021/01/13 07:50:33;;;;;;;18.67;1.92;;;3.20;94.10;;;;;;4996204;28;20388;-53
2021/01/13 07:53:03;;;;;;;9.80;1.90;;;3.30;93.70;;;;;;4996245;28;20046;-56
2021/01/13 07:55:31;;;;;;;13.30;3.00;;;3.30;93.50;;;;;;4995938;28;20058;-55
2021/01/13 07:58:03;;;;;;;12.07;2.65;;;3.20;93.50;;;;;;4995896;28;20047;-54
2021/01/13 08:00:36;;;;;;;12.75;2.75;;;3.30;93.30;;;;;;4996045;28;20142;-56
2021/01/13 08:03:59;;;;;;;6.93;1.20;;;3.30;93.00;;;;;;4996047;28;20164;-56
2021/01/13 08:06:28;;;;;;;11.70;1.40;;;3.00;93.60;;;;;;4996177;28;20046;-56
2021/01/13 08:09:05;;;;;;;;;;;3.00;93.50;;;;;;4996011;28;20046;-56
2021/01/13 08:11:53;;;;;;;15.70;2.55;;;3.00;93.80;;;;;;4995582;28;20000;-56
2021/01/13 08:14:47;;;;;;;11.32;2.60;;;3.00;93.80;;;;;;4995219;28;20045;-56
2021/01/13 08:17:40;;;;;;;11.05;2.03;;;3.00;93.70;;;;;;4995619;28;20038;-56
2021/01/13 08:20:39;;;;;;;7.70;1.38;;;3.10;93.60;;;;;;4995290;28;20054;-56
2021/01/13 08:23:10;;;;;;;6.68;1.38;;;3.20;92.90;;;;;;4995541;28;20066;-56
2021/01/13 08:25:37;;;;;;;13.65;1.85;;;3.30;92.60;;;;;;4995852;28;20054;-56
2021/01/13 08:28:03;;;;;;;9.80;1.55;;;3.30;92.60;;;;;;4995258;28;20046;-56
2021/01/13 08:30:30;;;;;;;12.60;1.77;;;3.30;92.70;;;;;;4995548;28;20052;-56
2021/01/13 08:32:57;;;;;;;9.85;1.92;;;3.40;92.40;;;;;;4995399;28;20398;-56
2021/01/13 08:35:36;;;;;;;12.55;2.08;;;3.60;92.30;;;;;;4995286;28;20038;-56
2021/01/13 08:38:07;;;;;;;15.32;2.58;;;3.60;93.00;;;;;;4995102;28;20492;-56
2021/01/13 08:40:35;;;;;;;12.77;2.50;;;3.70;92.40;;;;;;4995316;28;20078;-56
2021/01/13 08:43:17;;;;;;;14.10;2.05;;;3.80;92.70;;;;;;4995385;28;20105;-56
2021/01/13 08:45:51;;;;;;;14.55;3.25;;;3.70;93.60;;;;;;4994775;28;20484;-55
2021/01/13 08:48:22;;;;;;;16.90;3.25;;;3.70;93.30;;;;;;4994660;28;20046;-55
2021/01/13 08:51:08;;;;;;;9.88;3.13;;;3.60;92.60;;;;;;4994868;28;20073;-56
2021/01/13 08:53:34;;;;;;;12.13;2.28;;;3.50;93.10;;;;;;4972916;28;20062;-55
2021/01/13 08:56:01;;;;;;;6.57;1.40;;;3.50;93.40;;;;;;4973134;28;20047;-55
2021/01/13 08:58:34;;;;;;;10.85;1.30;;;3.50;93.90;;;;;;4973089;28;20054;-55
2021/01/13 09:01:05;;;;;;;6.32;1.20;;;3.40;94.10;;;;;;4973388;28;20428;-55
2021/01/13 09:03:35;;;;;;;5.80;1.55;;;3.40;94.10;;;;;;4972789;28;20575;-55
2021/01/13 09:06:17;;;;;;;5.25;1.00;;;3.30;94.10;;;;;;4973135;28;20199;-55
2021/01/13 09:08:47;;;;;;;9.77;1.40;;;3.40;94.00;;;;;;4973184;28;20038;-56
2021/01/13 09:11:35;;;;;;;8.88;1.70;;;3.40;94.00;;;;;;4973014;28;20098;-56
2021/01/13 09:14:20;;;;;;;11.30;2.05;;;3.30;94.40;;;;;;4972695;28;20047;-56
2021/01/13 09:16:53;;;;;;;9.20;1.70;;;3.40;94.40;;;;;;4973154;28;20205;-56
2021/01/13 09:19:30;;;;;;;11.15;2.42;;;3.40;94.80;;;;;;4972593;28;20050;-56
2021/01/13 09:21:59;;;;;;;18.42;2.13;;;3.50;94.00;;;;;;4973043;28;20489;-56
2021/01/13 09:24:28;;;;;;;20.15;2.85;;;3.60;93.90;;;;;;4972623;28;20525;-55
2021/01/13 09:26:54;;;;;;;15.05;2.15;;;3.70;93.50;;;;;;4972937;28;20862;-56
2021/01/13 09:29:20;;;;;;;17.67;2.60;;;3.80;93.50;;;;;;4972573;28;20104;-56
2021/01/13 09:32:11;;;;;;;13.77;2.33;;;3.80;93.80;;;;;;4993581;28;20122;-56
2021/01/13 09:34:37;;;;;;;17.00;1.88;;;3.90;93.50;;;;;;4994092;28;20043;-56
2021/01/13 09:37:03;;;;;;;18.10;3.38;;;4.00;93.40;;;;;;4993260;28;20039;-56
2021/01/13 09:39:36;;;;;;;12.55;2.15;;;3.90;93.50;;;;;;4994157;28;20412;-56
2021/01/13 09:42:04;;;;;;;12.90;2.10;;;4.00;93.20;;;;;;4993980;28;20125;-55
2021/01/13 09:44:32;;;;;;;11.75;2.58;;;4.10;93.50;;;;;;4994077;28;20050;-55
2021/01/13 09:46:59;;;;;;;18.45;2.75;;;4.30;92.40;;;;;;4993651;28;20534;-56
2021/01/13 09:49:25;;;;;;;12.95;2.58;;;4.40;92.30;;;;;;4993893;28;20039;-54
2021/01/13 09:51:51;;;;;;;15.93;3.50;;;4.50;92.50;;;;;;4993389;28;20403;-53
2021/01/13 09:54:22;;;;;;;9.85;2.10;;;4.50;92.10;;;;;;4993944;28;20089;-53
2021/01/13 09:56:55;;;;;;;7.85;1.38;;;4.40;91.80;;;;;;4993897;28;20073;-52
2021/01/13 09:59:24;;;;;;;7.13;2.05;;;4.30;91.50;;;;;;4993578;28;20050;-53
2021/01/13 10:01:56;;;;;;;9.85;1.40;;;4.20;91.60;;;;;;4993661;28;20047;-54
2021/01/13 10:04:23;;;;;;;9.23;2.22;;;4.20;91.50;;;;;;4994243;28;20042;-51
2021/01/13 10:06:53;;;;;;;9.07;1.63;;;4.30;92.10;;;;;;4993797;28;20098;-53
2021/01/13 10:09:19;;;;;;;7.15;1.10;;;4.20;92.00;;;;;;4993391;28;20121;-53
2021/01/13 10:11:52;;;;;;;11.10;2.42;;;4.10;92.50;;;;;;4993346;28;20105;-53
2021/01/13 10:14:20;;;;;;;8.13;1.20;;;4.10;92.80;;;;;;4992262;28;20496;-53
2021/01/13 10:16:47;;;;;;;12.95;1.08;;;4.40;93.00;;;;;;4993316;28;20125;-52
2021/01/13 10:19:14;;;;;;;11.95;1.50;;;4.70;93.00;;;;;;4992982;28;20045;-53
2021/01/13 10:21:45;;;;;;;9.55;1.98;;;4.90;92.70;;;;;;4993324;28;20492;-53
2021/01/13 10:24:13;;;;;;;12.80;1.77;;;5.10;92.40;;;;;;4993042;28;20061;-53
2021/01/13 10:26:41;;;;;;;9.18;2.63;;;5.30;92.40;;;;;;4993066;28;20050;-53
2021/01/13 10:29:08;;;;;;;9.32;1.90;;;5.50;91.40;;;;;;4993317;28;20053;-54
2021/01/13 10:31:34;;;;;;;16.15;2.58;;;5.60;91.20;;;;;;4993044;28;20138;-53
2021/01/13 10:34:01;;;;;;;15.70;3.28;;;5.60;91.10;;;;;;4992937;28;20052;-53
2021/01/13 10:36:30;;;;;;;24.42;2.35;;;5.60;91.20;;;;;;4992845;28;20046;-53
2021/01/13 10:38:57;;;;;;;12.07;2.83;;;5.60;91.60;;;;;;4993054;28;20074;-53
2021/01/13 10:41:29;;;;;;;15.90;1.98;;;5.70;90.90;;;;;;4992960;28;20100;-53
2021/01/13 10:44:02;;;;;;;15.60;3.17;;;5.90;90.90;;;;;;4993215;28;20030;-54
2021/01/13 10:46:40;;;;;;;16.15;2.90;;;6.00;90.90;;;;;;4992876;28;20061;-53
2021/01/13 10:49:18;;;;;;;15.73;3.38;;;6.00;90.50;;;;;;4992911;28;20049;-57
2021/01/13 10:51:47;;;;;;;11.02;2.60;;;5.90;90.10;;;;;;4992462;28;20389;-56
2021/01/13 10:54:17;;;;;;;17.40;3.10;;;6.00;90.20;;;;;;4992670;28;20125;-56
2021/01/13 10:56:44;;;;;;;10.88;1.73;;;6.10;90.00;;;;;;4992356;28;20477;-56
2021/01/13 10:59:15;;;;;;;19.30;2.25;;;6.20;89.90;;;;;;4992676;28;20049;-56
2021/01/13 11:01:45;;;;;;;16.70;2.25;;;6.40;88.00;;;;;;4992422;28;20057;-56
2021/01/13 11:04:25;;;;;;;12.48;2.55;;;6.50;88.40;;;;;;4991995;28;20077;-54
2021/01/13 11:07:06;;;;;;;16.55;2.40;;;6.80;86.70;;;;;;4992716;28;20050;-54
2021/01/13 11:09:34;;;;;;;17.48;2.20;;;7.00;86.50;;;;;;4992759;28;20042;-54
2021/01/13 11:12:00;;;;;;;17.80;2.53;;;7.00;85.60;;;;;;4992134;28;20455;-54
2021/01/13 11:14:32;;;;;;;12.52;2.05;;;7.10;83.80;;;;;;4992505;28;20066;-54
2021/01/13 11:17:05;;;;;;;15.57;2.45;;;7.10;83.60;;;;;;4992718;28;20038;-54
2021/01/13 11:19:32;;;;;;;16.52;2.78;;;7.20;84.30;;;;;;4992411;28;20077;-54
2021/01/13 11:21:59;;;;;;;13.02;2.40;;;7.10;84.00;;;;;;4992481;28;20035;-54
2021/01/13 11:24:40;;;;;;;14.35;2.97;;;7.10;84.50;;;;;;4992319;28;20174;-54
2021/01/13 11:27:08;;;;;;;16.75;2.45;;;7.10;84.40;;;;;;4992365;28;20042;-54
2021/01/13 11:29:37;;;;;;;12.55;2.40;;;7.10;85.20;;;;;;4992458;28;20046;-54
2021/01/13 11:32:05;;;;;;;13.07;2.05;;;7.10;84.60;;;;;;4992543;28;20101;-54
2021/01/13 11:34:32;;;;;;;;;;;7.10;84.60;;;;;;4992928;28;20051;-55
2021/01/13 11:37:22;;;;;;;19.52;2.22;;;7.00;84.90;;;;;;4992332;28;19921;-55
2021/01/13 11:40:03;;;;;;;10.73;1.92;;;7.10;82.60;;;;;;4992415;28;20421;-54
2021/01/13 11:43:06;;;;;;;13.15;1.95;;;7.10;82.50;;;;;;4992245;28;20049;-55
2021/01/13 11:45:45;;;;;;;12.50;2.03;;;7.20;83.50;;;;;;4992438;28;20067;-53
2021/01/13 11:48:14;;;;;;;10.52;2.85;;;7.00;82.20;;;;;;4992124;28;20077;-52
2021/01/13 11:50:46;;;;;;;13.63;1.40;;;6.80;83.90;;;;;;4992466;28;20054;-54
2021/01/13 11:53:22;;;;;;;7.18;1.33;;;6.30;85.30;;;;;;4992318;28;20392;-55
2021/01/13 11:55:48;;;;;;;2.65;0.82;;;5.90;85.90;;;;;;4992225;28;20092;-54
2021/01/13 11:58:17;;;;;;;1.67;0.60;;;5.60;86.70;;;;;;4992089;28;20058;-54
2021/01/13 12:00:42;;;;;;;6.35;1.05;;;5.50;84.70;;;;;;4992150;28;20046;-54
2021/01/13 12:03:19;;;;;;;3.25;0.60;;;5.50;85.00;;;;;;4992347;28;20397;-54
2021/01/13 12:05:45;;;;;;;5.43;0.60;;;5.50;85.90;;;;;;4991791;28;20485;-54
2021/01/13 12:08:15;;;;;;;2.78;0.77;;;5.70;86.10;;;;;;4992252;28;20050;-55
2021/01/13 12:10:49;;;;;;;11.07;1.60;;;5.80;86.10;;;;;;4991951;28;20042;-55
2021/01/13 12:13:14;;;;;;;8.30;1.25;;;5.80;85.90;;;;;;4992014;28;20062;-55
2021/01/13 12:15:49;;;;;;;11.35;2.55;;;5.90;86.70;;;;;;4995660;28;20050;-55
2021/01/13 12:18:22;;;;;;;10.55;1.73;;;6.00;85.90;;;;;;4995741;28;20058;-55
2021/01/13 12:20:49;;;;;;;11.77;2.40;;;5.90;87.20;;;;;;4995090;28;20058;-55
2021/01/13 12:23:31;;;;;;;15.05;1.95;;;5.90;86.90;;;;;;4995298;28;20046;-55
2021/01/13 12:26:16;;;;;;;20.60;2.58;;;5.90;87.30;;;;;;4995710;28;20173;-54
2021/01/13 12:28:43;;;;;;;15.40;2.13;;;5.90;88.20;;;;;;4995276;28;20542;-54
2021/01/13 12:31:10;;;;;;;13.80;2.22;;;5.90;87.60;;;;;;4994330;28;20065;-55
2021/01/13 12:33:56;;;;;;;14.43;2.33;;;6.00;87.80;;;;;;4994024;28;20485;-54
2021/01/13 12:36:25;;;;;;;18.25;2.65;;;6.10;87.40;;;;;;4995013;28;20046;-54
2021/01/13 12:38:53;;;;;;;17.63;2.73;;;6.10;86.80;;;;;;4995270;28;20049;-53
2021/01/13 12:41:27;;;;;;;14.75;2.90;;;6.10;86.90;;;;;;4995105;28;20046;-54
2021/01/13 12:43:54;;;;;;;17.48;2.58;;;6.20;87.00;;;;;;4990730;28;20093;-54
2021/01/13 12:46:37;;;;;;;12.13;2.15;;;6.20;85.50;;;;;;4988081;28;20046;-54
2021/01/13 12:49:04;;;;;;;17.48;2.15;;;6.20;85.70;;;;;;4994039;28;20065;-54
2021/01/13 12:51:30;;;;;;;14.10;2.28;;;6.30;85.70;;;;;;4995128;28;20046;-54
2021/01/13 12:53:58;;;;;;;17.85;2.63;;;6.30;85.90;;;;;;4994817;28;20042;-54
2021/01/13 12:56:29;;;;;;;18.58;2.55;;;6.30;85.90;;;;;;4995042;28;20038;-53
2021/01/13 12:58:56;;;;;;;13.95;2.75;;;6.30;85.70;;;;;;4994692;28;20046;-53
2021/01/13 13:01:22;;;;;;;11.82;2.00;;;6.30;85.40;;;;;;4994857;28;20038;-54
2021/01/13 13:03:49;;;;;;;7.20;1.98;;;6.20;84.10;;;;;;4994747;28;20050;-55
2021/01/13 13:06:32;;;;;;;10.52;1.48;;;6.00;84.00;;;;;;4994741;28;20030;-53
2021/01/13 13:08:59;;;;;;;10.93;1.55;;;6.00;84.60;;;;;;4994384;28;20042;-53
2021/01/13 13:11:26;;;;;;;10.50;1.48;;;5.80;85.70;;;;;;4994378;28;20496;-53
2021/01/13 13:13:52;;;;;;;7.20;1.20;;;5.80;86.00;;;;;;4994526;28;20042;-54
2021/01/13 13:16:20;;;;;;;10.18;1.52;;;5.80;85.10;;;;;;4994433;28;20129;-53